Mentor, MN

2:03 AM CDT on June 02, 2015 (GMT -0500)
Thief River Falls Regional | | Change Station
CLOSE
Current Station
Airport
Location: Thief River Falls,
Elevation: 1115 ft
Nearby Weather Stations

Elev 1115 ft 48.06 °N, 96.18 °W | Updated 8 minutes ago

Partly Cloudy
Partly Cloudy
59 °F
Feels Like 59 °F
N
12
Wind Variable Wind from South

Today
High -- | Low -- °F
--% Chance of Precip.
Yesterday
High -- | Low -- °F
Precip. -- in
5:30 AM 9:15 PM
Full, 100% visible
Pressure 29.93 in
Visibility 10.0 miles
Clouds Few 5000 ft
Scattered Clouds 5500 ft
Overcast 12000 ft
Dew Point 46 °F
Humidity 63%
Rainfall 0.01 in
Snow Depth Not available.
UV 0 out of 12
Pollen 9.30 out of 12
Air Quality Not available.
Flu Activity Sporadic
METAR KTVF 020655Z AUTO 19010KT 10SM TS FEW050 SCT055 OVC120 15/08 A2993 RMK AO1 TSB31 P0001

More Conditions Fewer Conditions

Pressure 29.93 in
Visibility 10.0 miles
Clouds Few 5000 ft
Scattered Clouds 5500 ft
Overcast 12000 ft
Dew Point 46 °F
Humidity 63%
Rainfall 0.01 in
Snow Depth Not available.
UV 0 out of 12
Pollen 9.30 out of 12
Air Quality Not available.
Flu Activity Sporadic
METAR KTVF 020655Z AUTO 19010KT 10SM TS FEW050 SCT055 OVC120 15/08 A2993 RMK AO1 TSB31 P0001

More Conditions Fewer Conditions

10-Day Weather Forecast

Almanac

Astronomy

Jun. 02, 2015 Rise Set
Actual Time
Civil Twilight
Nautical Twilight
Astronomical Twilight
Moon
Length of Visible Light
Length of Day
Tomorrow will be .
, % of the Moon is Illuminated

Today's Extremes

State Highs State Lows

Community

WunderPhotos

Upload Photos

1,825,922 photos uploaded!

WunderBlogs® & News

Nearby

Air Quality

  Air Quality AQ Index Pollutant
Not available.

Snow Depth

Station Depth Elevation

Earthquake Activity

City Distance Mag. Time & Date
Minimum magnitude displayed is 2.5.

Coastal Water Temperatures

Place Temperature

Stations

Nearby Weather Stations

Station Location Temp. Windchill Dew Point Humidity Wind Precip. Elev Updated Type